Time;durP1;ratioP1;P1;durP2;ratioP2;P2;SDS_P1;SDS_P2;PMS_P1;PMS_P2;Temp;Humidity;BMP_temperature;BMP_pressure;BME280_temperature;BME280_humidity;BME280_pressure;Samples;Min_cycle;Max_cycle;Signal;HPM_P1;HPM_P2
2023/10/08 00:00:53;;;;;;;7.10;3.33;;;19.60;66.80;;;;;;5043235;28;20688;-52
2023/10/08 00:03:20;;;;;;;;;;;19.60;66.90;;;;;;5046127;28;20030;-50
2023/10/08 00:05:46;;;;;;;5.50;3.25;;;19.60;67.00;;;;;;5049844;28;19912;-52
2023/10/08 00:08:16;;;;;;;6.05;3.00;;;19.60;67.10;;;;;;5040237;28;20052;-51
2023/10/08 00:10:42;;;;;;;5.68;3.30;;;19.70;67.10;;;;;;5039182;28;20031;-55
2023/10/08 00:13:09;;;;;;;6.82;2.83;;;19.70;67.10;;;;;;5047439;28;20105;-49
2023/10/08 00:15:36;;;;;;;5.28;3.22;;;19.60;66.90;;;;;;5048013;28;20653;-48
2023/10/08 00:18:05;;;;;;;5.25;2.80;;;19.60;67.00;;;;;;5039196;28;20025;-47
2023/10/08 00:20:42;;;;;;;4.90;2.85;;;19.60;67.00;;;;;;5045522;28;20029;-48
2023/10/08 00:23:07;;;;;;;4.45;2.72;;;19.60;67.10;;;;;;5040783;28;20033;-49
2023/10/08 00:25:34;;;;;;;5.05;2.70;;;19.60;66.90;;;;;;5042026;28;20082;-47
2023/10/08 00:28:01;;;;;;;4.97;3.00;;;19.60;67.00;;;;;;5033974;28;20025;-50
2023/10/08 00:30:27;;;;;;;3.88;2.67;;;19.70;67.10;;;;;;5044158;28;20030;-46
2023/10/08 00:32:52;;;;;;;6.18;3.15;;;19.60;67.00;;;;;;5045386;28;20297;-50
2023/10/08 00:35:20;;;;;;;5.05;2.97;;;19.60;67.00;;;;;;5044228;28;20126;-49
2023/10/08 00:37:48;;;;;;;3.80;2.88;;;19.60;67.00;;;;;;5040278;28;20541;-51
2023/10/08 00:40:19;;;;;;;5.28;3.22;;;19.60;67.10;;;;;;5039305;28;20032;-49
2023/10/08 00:42:46;;;;;;;6.50;2.97;;;19.60;67.00;;;;;;5043412;28;20033;-48
2023/10/08 00:45:16;;;;;;;6.05;3.10;;;19.60;67.00;;;;;;5042762;28;20040;-50
2023/10/08 00:47:46;;;;;;;8.07;3.53;;;19.60;67.00;;;;;;5042309;28;20033;-50
2023/10/08 00:50:20;;;;;;;8.68;3.13;;;19.60;67.10;;;;;;5043159;28;20037;-46
2023/10/08 00:52:59;;;;;;;6.13;3.03;;;19.60;66.90;;;;;;5037348;28;20033;-48
2023/10/08 00:55:28;;;;;;;5.50;2.92;;;19.70;66.90;;;;;;5040481;28;20029;-49
2023/10/08 00:58:09;;;;;;;4.10;2.88;;;19.70;66.90;;;;;;5039993;28;20452;-50
2023/10/08 01:00:42;;;;;;;7.75;2.85;;;19.60;66.80;;;;;;5039011;28;20020;-46
2023/10/08 01:03:14;;;;;;;5.03;2.80;;;19.70;67.20;;;;;;5046523;28;20021;-46
2023/10/08 01:05:47;;;;;;;7.57;3.38;;;19.60;67.00;;;;;;5039980;28;20041;-49
2023/10/08 01:08:22;;;;;;;6.03;3.03;;;19.70;67.40;;;;;;5039853;28;20035;-45
2023/10/08 01:10:48;;;;;;;12.53;3.27;;;19.70;66.90;;;;;;5045941;28;20517;-46
2023/10/08 01:13:19;;;;;;;12.68;3.75;;;19.70;67.00;;;;;;5043206;28;20051;-51
2023/10/08 01:15:47;;;;;;;8.70;3.33;;;19.70;67.00;;;;;;5038802;28;20072;-51
2023/10/08 01:18:24;;;;;;;7.85;3.45;;;19.70;67.00;;;;;;5042429;28;20124;-46
2023/10/08 01:20:52;;;;;;;7.35;3.10;;;19.70;67.10;;;;;;5036711;28;20022;-51
2023/10/08 01:23:20;;;;;;;10.32;4.35;;;19.70;67.10;;;;;;5036061;28;20079;-50
2023/10/08 01:28:44;;;;;;;7.97;2.90;;;19.70;67.00;;;;;;5018685;28;20033;-48
2023/10/08 01:31:12;;;;;;;5.53;3.08;;;19.70;66.90;;;;;;5044862;28;20033;-49
2023/10/08 01:33:38;;;;;;;5.80;2.67;;;19.60;66.90;;;;;;5039425;28;20033;-52
2023/10/08 01:36:04;;;;;;;5.20;3.15;;;19.70;67.00;;;;;;5042547;28;20401;-51
2023/10/08 01:38:32;;;;;;;3.65;2.55;;;19.70;66.90;;;;;;5039706;28;20055;-52
2023/10/08 01:41:03;;;;;;;5.75;3.05;;;19.70;66.90;;;;;;5046322;28;20109;-50
2023/10/08 01:43:29;;;;;;;3.60;2.47;;;19.70;67.00;;;;;;5038492;28;20036;-51
2023/10/08 01:45:55;;;;;;;7.05;3.65;;;19.70;67.00;;;;;;5040501;28;20063;-50
2023/10/08 01:48:27;;;;;;;5.93;2.85;;;19.70;67.10;;;;;;5043124;28;20052;-47
2023/10/08 01:51:01;;;;;;;5.78;3.13;;;19.60;67.00;;;;;;5038596;28;20037;-49
2023/10/08 01:53:28;;;;;;;5.50;2.88;;;19.60;67.10;;;;;;5041529;28;20563;-50
2023/10/08 01:55:54;;;;;;;4.97;3.05;;;19.60;67.10;;;;;;5039335;28;20116;-53
2023/10/08 01:58:22;;;;;;;5.55;3.47;;;19.60;67.20;;;;;;5039831;28;20095;-50
2023/10/08 02:00:48;;;;;;;4.88;3.00;;;19.60;67.10;;;;;;5036964;28;20037;-48
2023/10/08 02:03:16;;;;;;;3.83;2.35;;;19.60;67.00;;;;;;5033667;28;20064;-49
2023/10/08 02:05:45;;;;;;;5.55;3.33;;;19.60;66.90;;;;;;5033449;28;20344;-49
2023/10/08 02:08:12;;;;;;;5.70;2.83;;;19.70;67.00;;;;;;5040840;28;20033;-50
2023/10/08 02:10:43;;;;;;;4.45;2.65;;;19.60;67.00;;;;;;5034772;28;20036;-53
2023/10/08 02:13:10;;;;;;;4.07;2.40;;;19.70;67.00;;;;;;5032621;28;20033;-50
2023/10/08 02:15:40;;;;;;;5.75;2.80;;;19.70;67.10;;;;;;5039957;28;20033;-46
2023/10/08 02:18:06;;;;;;;10.45;3.15;;;19.70;67.10;;;;;;5039648;28;20025;-47
2023/10/08 02:20:32;;;;;;;13.23;3.80;;;19.60;67.20;;;;;;5038676;28;20067;-47
2023/10/08 02:22:59;;;;;;;11.23;3.03;;;19.70;67.60;;;;;;5035317;28;20054;-51
2023/10/08 02:25:25;;;;;;;6.28;3.45;;;19.70;67.20;;;;;;5036950;28;20018;-47
2023/10/08 02:27:51;;;;;;;11.15;2.92;;;19.70;66.80;;;;;;5042773;28;20048;-52
2023/10/08 02:30:17;;;;;;;6.22;2.72;;;19.70;67.10;;;;;;5038620;28;20048;-50
2023/10/08 02:32:43;;;;;;;7.18;3.15;;;19.70;66.90;;;;;;5040498;28;20735;-46
2023/10/08 02:35:11;;;;;;;5.65;2.78;;;19.70;66.90;;;;;;5040806;28;20600;-47
2023/10/08 02:37:39;;;;;;;4.78;2.47;;;19.70;67.00;;;;;;5037849;28;20071;-49
2023/10/08 02:40:19;;;;;;;5.63;2.47;;;19.70;66.90;;;;;;5041682;28;20160;-51
2023/10/08 02:42:46;;;;;;;5.70;2.95;;;19.70;67.10;;;;;;5039936;28;20025;-55
2023/10/08 02:45:13;;;;;;;7.72;3.25;;;19.70;66.80;;;;;;5041988;28;20040;-50
2023/10/08 02:47:41;;;;;;;5.70;2.47;;;19.70;67.30;;;;;;5038991;28;20426;-51
2023/10/08 02:50:08;;;;;;;8.43;3.00;;;19.70;67.00;;;;;;5035381;28;20037;-52
2023/10/08 02:52:34;;;;;;;6.50;2.78;;;19.80;67.10;;;;;;5033247;28;20168;-52
2023/10/08 02:55:00;;;;;;;6.55;3.20;;;19.70;67.10;;;;;;5041229;28;20040;-51
2023/10/08 02:57:29;;;;;;;5.65;3.00;;;19.80;67.00;;;;;;5043986;28;20025;-53
2023/10/08 02:59:55;;;;;;;3.58;2.65;;;19.70;67.10;;;;;;5039051;28;20046;-49
2023/10/08 03:02:21;;;;;;;5.38;3.20;;;19.70;67.10;;;;;;5035797;28;20056;-48
2023/10/08 03:04:47;;;;;;;7.57;3.13;;;19.70;67.30;;;;;;5039930;28;20056;-47
2023/10/08 03:07:33;;;;;;;8.05;3.95;;;19.70;67.40;;;;;;5020436;28;20637;-49
2023/10/08 03:10:17;;;;;;;7.32;3.67;;;19.70;67.60;;;;;;5038684;28;20103;-47
2023/10/08 03:12:46;;;;;;;5.68;3.58;;;19.70;67.60;;;;;;5032428;28;20280;-50
2023/10/08 03:15:14;;;;;;;6.65;3.15;;;19.70;67.90;;;;;;5052610;28;20098;-47
2023/10/08 03:17:48;;;;;;;5.10;3.15;;;19.70;68.00;;;;;;5037917;28;20123;-47
2023/10/08 03:23:06;;;;;;;6.85;4.43;;;19.70;68.00;;;;;;5042019;28;20113;-49
2023/10/08 03:25:33;;;;;;;6.53;3.70;;;19.60;68.70;;;;;;5044307;28;20054;-49
2023/10/08 03:27:59;;;;;;;6.13;3.17;;;19.60;68.50;;;;;;5043711;28;20051;-49
2023/10/08 03:30:26;;;;;;;5.97;3.85;;;19.50;68.50;;;;;;5037359;28;20053;-48
2023/10/08 03:32:55;;;;;;;5.82;3.05;;;19.50;69.00;;;;;;5047122;28;20079;-50
2023/10/08 03:35:27;;;;;;;3.35;2.53;;;19.50;68.60;;;;;;5046374;28;20552;-50
2023/10/08 03:37:54;;;;;;;3.40;2.45;;;19.30;69.00;;;;;;5045338;28;20071;-49
2023/10/08 03:40:25;;;;;;;3.83;1.95;;;19.30;69.00;;;;;;5041564;28;20040;-51
2023/10/08 03:42:51;;;;;;;2.88;2.00;;;19.30;68.80;;;;;;5045062;28;20041;-49
2023/10/08 03:45:48;;;;;;;5.43;2.28;;;19.30;69.00;;;;;;5050023;28;20034;-46
2023/10/08 03:48:06;;;;;;;3.05;1.90;;;19.30;68.50;;;;;;5043030;28;20035;-51
2023/10/08 03:50:41;;;;;;;4.90;2.20;;;19.40;68.70;;;;;;5031757;28;20029;-47
2023/10/08 03:53:11;;;;;;;4.75;1.60;;;19.40;68.50;;;;;;5034071;28;20032;-48
2023/10/08 03:55:40;;;;;;;1.88;1.40;;;19.40;68.50;;;;;;5037239;28;20029;-49
2023/10/08 03:58:17;;;;;;;20.58;2.78;;;19.30;68.40;;;;;;5040078;28;20021;-48
2023/10/08 04:00:46;;;;;;;9.80;1.98;;;19.30;68.30;;;;;;5039428;28;20140;-51
2023/10/08 04:03:11;;;;;;;7.55;1.70;;;19.30;68.60;;;;;;5040941;28;20025;-50
2023/10/08 04:05:51;;;;;;;5.57;1.55;;;19.30;68.10;;;;;;5040762;28;20711;-49
2023/10/08 04:08:19;;;;;;;5.07;1.98;;;19.30;68.20;;;;;;5043671;28;20025;-51
2023/10/08 04:13:10;;;;;;;3.58;1.55;;;19.40;68.30;;;;;;5046092;28;20043;-52
2023/10/08 04:15:40;;;;;;;5.05;1.13;;;19.30;67.90;;;;;;5043749;28;20378;-52
2023/10/08 04:18:10;;;;;;;3.95;1.45;;;19.40;68.00;;;;;;5035960;28;20403;-49
2023/10/08 04:20:39;;;;;;;5.50;1.35;;;19.40;67.80;;;;;;5034421;28;20052;-48
2023/10/08 04:23:20;;;;;;;2.83;1.40;;;19.40;67.80;;;;;;5040040;28;20570;-48
2023/10/08 04:25:47;;;;;;;4.25;1.60;;;19.40;68.00;;;;;;5044548;28;20452;-50
2023/10/08 04:28:15;;;;;;;4.22;1.23;;;19.40;67.90;;;;;;5039523;28;20655;-51
2023/10/08 04:30:41;;;;;;;2.75;1.30;;;19.40;67.80;;;;;;5041416;28;20565;-51
2023/10/08 04:33:14;;;;;;;5.82;1.40;;;19.50;67.70;;;;;;5045035;28;20032;-47
2023/10/08 04:36:01;;;;;;;3.13;1.38;;;19.50;67.60;;;;;;5046189;28;20059;-52
2023/10/08 04:38:36;;;;;;;4.93;1.58;;;19.40;67.50;;;;;;5044089;28;20029;-47
2023/10/08 04:41:08;;;;;;;1.75;1.10;;;19.40;67.60;;;;;;5035707;28;20087;-50
2023/10/08 04:43:37;;;;;;;4.00;1.75;;;19.40;68.00;;;;;;5050084;28;20535;-50
2023/10/08 04:46:19;;;;;;;5.47;1.40;;;19.40;67.70;;;;;;5048857;28;20044;-47
2023/10/08 04:48:55;;;;;;;3.08;1.20;;;19.40;67.90;;;;;;5032282;28;20044;-53
2023/10/08 04:51:22;;;;;;;3.00;1.40;;;19.50;68.00;;;;;;5037332;28;20136;-50
2023/10/08 04:53:48;;;;;;;3.92;1.13;;;19.50;67.40;;;;;;5040265;28;20029;-46
2023/10/08 04:56:17;;;;;;;2.35;1.35;;;19.40;67.90;;;;;;5039465;28;20063;-47
2023/10/08 04:58:47;;;;;;;2.75;0.93;;;19.40;68.10;;;;;;5043407;28;20395;-47
2023/10/08 05:01:17;;;;;;;2.45;1.27;;;19.40;68.00;;;;;;5043253;28;20040;-55
2023/10/08 05:33:05;;;;;;;4.03;0.90;;;19.40;68.20;;;;;;5040513;28;20042;-46
2023/10/08 05:35:38;;;;;;;4.38;1.42;;;19.40;67.90;;;;;;5046576;28;20033;-47
2023/10/08 05:38:15;;;;;;;3.65;1.02;;;19.40;67.70;;;;;;5046786;28;20036;-47
2023/10/08 05:54:35;;;;;;;6.05;0.77;;;19.10;67.90;;;;;;5035037;28;20029;-47
2023/10/08 06:13:16;;;;;;;2.08;0.60;;;18.90;66.80;;;;;;5045175;28;20126;-49
2023/10/08 06:16:05;;;;;;;2.35;0.73;;;18.90;67.10;;;;;;5034425;28;20040;-49
2023/10/08 06:18:32;;;;;;;2.30;0.57;;;18.90;67.30;;;;;;5030404;28;20108;-45
2023/10/08 06:21:08;;;;;;;1.77;0.75;;;18.90;67.30;;;;;;5038661;28;20065;-51
2023/10/08 06:23:36;;;;;;;0.90;0.60;;;19.00;67.10;;;;;;5027030;28;20033;-48
2023/10/08 06:26:14;;;;;;;2.55;0.75;;;19.00;67.10;;;;;;5042840;28;20060;-49
2023/10/08 06:28:42;;;;;;;12.98;1.75;;;19.00;67.00;;;;;;5036825;28;20152;-47
2023/10/08 06:31:11;;;;;;;4.38;0.90;;;19.00;67.70;;;;;;5046129;28;20025;-46
2023/10/08 06:33:41;;;;;;;2.05;0.70;;;19.10;67.00;;;;;;5044411;28;20040;-51
2023/10/08 06:38:48;;;;;;;4.03;0.50;;;19.00;66.30;;;;;;5048212;28;20093;-48
2023/10/08 06:44:02;;;;;;;2.17;0.77;;;18.90;66.70;;;;;;5047079;28;20082;-49
2023/10/08 06:46:29;;;;;;;1.02;0.73;;;18.90;66.70;;;;;;5029678;28;20040;-50
2023/10/08 06:48:54;;;;;;;3.33;0.88;;;18.90;66.60;;;;;;5044078;28;20037;-49
2023/10/08 06:51:21;;;;;;;2.90;1.10;;;18.90;66.60;;;;;;5045150;28;20122;-46
2023/10/08 06:53:48;;;;;;;2.75;1.40;;;18.90;66.60;;;;;;5048585;28;20025;-48
2023/10/08 06:56:19;;;;;;;2.17;1.02;;;18.90;66.70;;;;;;5045737;28;20120;-47
2023/10/08 06:58:48;;;;;;;3.28;1.25;;;18.90;66.50;;;;;;5051287;28;20036;-49
2023/10/08 07:01:21;;;;;;;1.98;1.33;;;18.90;66.50;;;;;;5050385;28;20036;-46
2023/10/08 07:03:50;;;;;;;3.28;1.75;;;18.90;66.40;;;;;;5052402;28;20060;-46
2023/10/08 07:06:16;;;;;;;3.17;1.67;;;18.80;66.10;;;;;;5043276;28;20044;-47
2023/10/08 07:08:46;;;;;;;3.42;1.45;;;18.80;66.30;;;;;;5052410;28;20346;-53
2023/10/08 07:11:12;;;;;;;4.15;1.70;;;18.80;66.30;;;;;;5049569;28;20501;-51
2023/10/08 07:13:40;;;;;;;2.35;1.45;;;18.80;66.10;;;;;;5047511;28;20423;-49
2023/10/08 07:16:10;;;;;;;2.95;1.70;;;18.80;66.10;;;;;;5043083;28;20509;-50
2023/10/08 07:18:37;;;;;;;3.03;1.20;;;18.80;66.00;;;;;;5046778;28;20103;-48
2023/10/08 07:21:11;;;;;;;2.63;1.38;;;18.70;65.10;;;;;;5049775;28;20391;-45
2023/10/08 07:23:49;;;;;;;2.70;1.20;;;18.60;66.10;;;;;;5045534;28;20861;-50
2023/10/08 07:26:17;;;;;;;2.47;1.25;;;18.60;66.00;;;;;;5035506;28;20131;-48
2023/10/08 07:28:43;;;;;;;5.03;1.80;;;18.70;66.00;;;;;;5038861;28;20037;-46
2023/10/08 07:31:16;;;;;;;1.42;1.30;;;18.70;66.10;;;;;;5035773;28;20105;-47
2023/10/08 07:33:47;;;;;;;2.53;1.30;;;18.70;65.90;;;;;;5040718;28;20025;-47
2023/10/08 07:36:18;;;;;;;4.18;1.48;;;18.70;66.20;;;;;;5035001;28;20033;-46
2023/10/08 07:38:44;;;;;;;2.95;1.20;;;18.70;66.00;;;;;;5047976;28;20480;-46
2023/10/08 07:41:14;;;;;;;1.20;0.93;;;18.70;65.80;;;;;;5052109;28;20029;-47
2023/10/08 07:43:44;;;;;;;1.70;1.00;;;18.50;65.80;;;;;;5047448;28;20036;-47
2023/10/08 07:46:10;;;;;;;2.92;1.23;;;18.50;65.90;;;;;;5048376;28;20033;-49
2023/10/08 07:48:42;;;;;;;2.05;1.10;;;18.60;66.10;;;;;;5044221;28;20044;-47
2023/10/08 07:51:08;;;;;;;1.42;1.10;;;18.50;65.70;;;;;;5039283;28;20406;-48
2023/10/08 07:53:41;;;;;;;2.70;1.70;;;18.50;65.50;;;;;;5044898;28;20041;-52
2023/10/08 07:56:08;;;;;;;2.28;1.35;;;18.50;66.30;;;;;;5047299;28;20040;-47
2023/10/08 07:58:37;;;;;;;3.08;1.58;;;18.40;65.90;;;;;;5044917;28;20032;-54
2023/10/08 08:01:06;;;;;;;3.42;1.42;;;18.40;66.10;;;;;;5047890;28;20031;-49
2023/10/08 08:03:36;;;;;;;3.65;2.10;;;18.40;65.50;;;;;;5045202;28;20042;-51
2023/10/08 08:06:08;;;;;;;3.33;1.48;;;18.40;65.70;;;;;;5046436;28;20036;-50
2023/10/08 08:08:36;;;;;;;2.90;1.50;;;18.40;65.80;;;;;;5046047;28;20024;-49
2023/10/08 08:11:11;;;;;;;2.15;1.55;;;18.30;65.40;;;;;;5048130;28;20159;-54
2023/10/08 08:13:43;;;;;;;3.10;1.63;;;18.20;64.90;;;;;;5036841;28;20255;-47
2023/10/08 08:16:20;;;;;;;3.50;1.75;;;18.10;65.30;;;;;;5035104;28;20101;-50
2023/10/08 08:18:51;;;;;;;3.47;1.98;;;18.00;65.30;;;;;;5058644;28;20032;-50
2023/10/08 08:21:19;;;;;;;3.78;2.17;;;18.10;65.50;;;;;;5040931;28;20096;-47
2023/10/08 08:23:49;;;;;;;4.07;2.35;;;18.20;65.30;;;;;;5047832;28;20033;-47
2023/10/08 08:26:28;;;;;;;5.40;2.80;;;18.20;64.60;;;;;;5047663;28;20056;-46
2023/10/08 08:28:56;;;;;;;5.88;2.28;;;18.20;65.00;;;;;;5048556;28;25370;-47
2023/10/08 08:31:23;;;;;;;7.03;2.75;;;18.30;65.00;;;;;;5044169;28;20041;-49
2023/10/08 08:33:59;;;;;;;6.60;2.63;;;18.30;65.20;;;;;;5044433;28;20499;-52
2023/10/08 08:36:27;;;;;;;5.78;2.47;;;18.30;65.40;;;;;;5046975;28;20037;-49
2023/10/08 08:38:53;;;;;;;6.07;2.78;;;18.30;65.30;;;;;;5050265;28;20036;-51
2023/10/08 08:41:20;;;;;;;5.85;2.78;;;18.30;65.40;;;;;;5044533;28;20037;-50
2023/10/08 08:43:57;;;;;;;5.95;2.20;;;18.30;65.00;;;;;;5042667;28;20040;-50
2023/10/08 08:46:31;;;;;;;4.63;2.60;;;18.30;64.90;;;;;;5043576;28;20406;-52
2023/10/08 08:49:00;;;;;;;3.80;2.67;;;18.30;65.40;;;;;;5043721;28;20104;-47
2023/10/08 08:51:27;;;;;;;5.40;2.42;;;18.30;64.90;;;;;;5044304;28;20027;-53
2023/10/08 08:53:52;;;;;;;4.90;2.65;;;18.40;65.20;;;;;;5044845;28;20025;-52
2023/10/08 08:56:18;;;;;;;4.22;2.33;;;18.30;65.40;;;;;;5046350;28;20514;-52
2023/10/08 08:58:45;;;;;;;4.03;2.40;;;18.40;66.10;;;;;;5047911;28;20087;-50
2023/10/08 09:01:14;;;;;;;4.07;2.17;;;18.40;66.20;;;;;;5047110;28;20032;-49
2023/10/08 09:03:39;;;;;;;6.95;2.40;;;18.60;67.20;;;;;;5050230;28;20065;-50
2023/10/08 09:06:05;;;;;;;6.82;2.28;;;18.70;67.30;;;;;;5043752;28;20076;-44
2023/10/08 09:08:36;;;;;;;7.78;2.50;;;18.80;67.70;;;;;;5044248;28;20025;-45
2023/10/08 09:11:04;;;;;;;10.95;2.63;;;18.90;67.60;;;;;;5040326;28;20041;-49
2023/10/08 09:13:31;;;;;;;8.30;2.85;;;18.90;68.00;;;;;;5038973;28;20096;-45
2023/10/08 09:16:08;;;;;;;6.50;2.92;;;19.00;67.80;;;;;;5037801;28;20091;-48
2023/10/08 09:18:33;;;;;;;7.10;2.58;;;19.10;68.50;;;;;;5032851;28;21583;-47
2023/10/08 09:21:10;;;;;;;5.28;2.28;;;19.20;69.00;;;;;;5044571;28;20025;-46
2023/10/08 09:23:43;;;;;;;6.38;2.92;;;19.30;68.70;;;;;;5038126;28;20079;-48
2023/10/08 09:26:10;;;;;;;4.65;2.00;;;19.30;68.10;;;;;;5043671;28;20060;-48
2023/10/08 09:28:38;;;;;;;5.72;2.10;;;19.00;66.90;;;;;;5049302;28;20037;-46
2023/10/08 09:31:06;;;;;;;4.25;2.30;;;18.90;67.60;;;;;;5049717;28;20056;-49
2023/10/08 09:33:32;;;;;;;5.70;2.33;;;18.80;67.50;;;;;;5044128;28;20071;-49
2023/10/08 09:36:02;;;;;;;5.32;2.55;;;18.80;67.20;;;;;;5051122;28;20058;-50
2023/10/08 09:38:30;;;;;;;7.47;2.88;;;18.70;67.30;;;;;;5039441;28;20603;-56
2023/10/08 09:40:56;;;;;;;5.75;2.20;;;18.70;69.00;;;;;;5038627;28;20025;-64
2023/10/08 09:43:24;;;;;;;6.32;2.20;;;19.00;68.90;;;;;;5050846;28;20072;-56
2023/10/08 09:45:57;;;;;;;11.00;2.88;;;19.10;68.50;;;;;;5050791;28;20029;-57
2023/10/08 09:48:26;;;;;;;14.38;2.25;;;19.10;68.30;;;;;;5041706;22;20102;-52
2023/10/08 09:50:55;;;;;;;14.05;2.55;;;19.10;68.00;;;;;;5043003;28;20039;-52
2023/10/08 09:53:32;;;;;;;7.75;3.08;;;19.10;67.90;;;;;;5043500;28;20032;-49
2023/10/08 09:55:59;;;;;;;8.00;2.53;;;19.10;67.70;;;;;;5045058;28;20077;-51
2023/10/08 09:58:27;;;;;;;9.15;2.92;;;19.10;67.30;;;;;;5046564;28;20048;-52
2023/10/08 10:00:57;;;;;;;9.30;3.30;;;19.20;67.50;;;;;;5043701;28;20022;-52
2023/10/08 10:03:27;;;;;;;7.22;2.40;;;19.10;67.50;;;;;;5048115;28;20673;-53
2023/10/08 10:05:58;;;;;;;5.97;2.03;;;19.10;67.50;;;;;;5039130;28;20025;-52
2023/10/08 10:08:26;;;;;;;6.25;2.72;;;19.10;67.60;;;;;;5038811;28;20033;-52
2023/10/08 10:10:58;;;;;;;4.75;2.15;;;19.10;67.50;;;;;;5039163;28;20048;-50
2023/10/08 10:13:29;;;;;;;4.72;1.92;;;19.20;67.30;;;;;;5041035;28;20026;-53
2023/10/08 10:15:54;;;;;;;8.32;2.38;;;19.20;67.40;;;;;;5039361;28;21007;-55
2023/10/08 10:18:27;;;;;;;9.60;2.72;;;19.20;67.50;;;;;;5040984;28;20040;-51
2023/10/08 10:21:00;;;;;;;8.15;2.80;;;19.20;69.40;;;;;;5042196;28;20517;-55
2023/10/08 10:23:42;;;;;;;9.70;2.15;;;19.30;70.00;;;;;;5038401;28;20498;-60
2023/10/08 10:26:30;;;;;;;7.18;2.20;;;19.40;69.60;;;;;;5043708;28;20128;-56
2023/10/08 10:29:09;;;;;;;7.78;2.60;;;18.80;67.00;;;;;;5055987;28;20824;-56
2023/10/08 10:31:37;;;;;;;13.35;10.57;;;17.70;69.50;;;;;;5037749;28;20078;-60
2023/10/08 10:34:10;;;;;;;10.70;4.85;;;17.50;68.50;;;;;;5033912;28;20506;-50
2023/10/08 10:36:37;;;;;;;11.88;4.15;;;17.20;69.60;;;;;;5040976;28;20033;-54
2023/10/08 10:39:15;;;;;;;11.10;4.63;;;17.10;68.40;;;;;;5040553;28;20532;-55
2023/10/08 10:41:45;;;;;;;12.07;3.97;;;16.90;68.00;;;;;;5039121;28;20037;-57
2023/10/08 10:44:15;;;;;;;27.65;6.45;;;16.90;69.70;;;;;;5041219;28;20064;-57
2023/10/08 10:46:50;;;;;;;15.13;3.60;;;17.30;74.20;;;;;;5038684;28;20033;-53
2023/10/08 10:49:30;;;;;;;12.02;3.30;;;18.10;73.70;;;;;;5034899;28;20048;-61
2023/10/08 10:51:57;;;;;;;9.55;2.88;;;18.60;75.90;;;;;;5043948;28;20478;-53
2023/10/08 10:54:24;;;;;;;10.52;2.47;;;18.80;71.90;;;;;;5039550;28;20044;-54
2023/10/08 10:57:03;;;;;;;11.75;3.08;;;18.90;72.60;;;;;;5043517;28;20033;-55
2023/10/08 10:59:36;;;;;;;11.82;3.22;;;18.90;71.40;;;;;;5042663;28;20033;-53
2023/10/08 11:02:20;;;;;;;10.85;2.42;;;18.90;71.30;;;;;;5046143;28;20043;-52
2023/10/08 11:04:50;;;;;;;9.65;2.38;;;18.90;70.20;;;;;;5044311;28;20618;-56
2023/10/08 11:07:20;;;;;;;4.90;2.40;;;18.90;71.30;;;;;;5045132;28;20390;-53
2023/10/08 11:09:47;;;;;;;8.82;2.50;;;19.00;72.70;;;;;;5042250;28;20037;-55
2023/10/08 11:12:18;;;;;;;11.20;2.92;;;19.10;72.70;;;;;;5045884;28;20679;-50
2023/10/08 11:14:47;;;;;;;4.32;2.08;;;19.10;72.30;;;;;;5041485;28;20122;-51
2023/10/08 11:17:17;;;;;;;6.57;1.98;;;19.10;73.00;;;;;;5045475;28;20393;-57
2023/10/08 11:19:46;;;;;;;7.28;1.80;;;19.20;72.90;;;;;;5043534;28;20495;-56
2023/10/08 11:22:16;;;;;;;6.30;2.17;;;19.10;71.00;;;;;;5049890;28;20418;-51
2023/10/08 11:24:44;;;;;;;6.65;2.17;;;19.10;70.30;;;;;;5044833;28;20168;-53
2023/10/08 11:27:16;;;;;;;6.72;2.47;;;19.10;69.90;;;;;;5048731;28;20033;-53
2023/10/08 11:29:47;;;;;;;6.70;1.88;;;19.10;69.70;;;;;;5037451;28;20052;-54
2023/10/08 11:32:17;;;;;;;4.45;1.90;;;19.10;69.70;;;;;;5035393;28;20529;-54
2023/10/08 11:34:49;;;;;;;6.82;1.80;;;19.10;69.30;;;;;;5038288;28;20083;-51
2023/10/08 11:37:29;;;;;;;6.68;1.98;;;19.10;69.20;;;;;;5041386;28;20245;-51
2023/10/08 11:39:58;;;;;;;4.57;2.15;;;19.10;68.90;;;;;;5038176;28;20044;-52
2023/10/08 11:42:46;;;;;;;5.63;2.30;;;19.10;69.00;;;;;;5040843;28;20060;-55
2023/10/08 11:45:26;;;;;;;4.38;2.33;;;19.20;68.90;;;;;;5044014;28;20052;-51
2023/10/08 11:47:55;;;;;;;4.03;1.67;;;19.20;68.70;;;;;;5043577;28;20108;-51
2023/10/08 11:50:31;;;;;;;3.95;2.42;;;19.10;68.80;;;;;;5047766;28;20130;-53
2023/10/08 11:53:02;;;;;;;3.90;1.80;;;19.10;68.60;;;;;;5047292;28;20036;-50
2023/10/08 11:55:35;;;;;;;3.17;1.88;;;19.20;68.50;;;;;;5049089;28;20037;-50
2023/10/08 11:58:09;;;;;;;3.40;1.60;;;19.10;68.50;;;;;;5040676;28;20032;-52
2023/10/08 12:00:46;;;;;;;4.13;1.70;;;19.20;68.50;;;;;;5041561;28;20639;-54
2023/10/08 12:03:18;;;;;;;5.20;1.90;;;19.20;68.40;;;;;;5043077;28;20402;-51
2023/10/08 12:06:00;;;;;;;3.83;1.70;;;19.20;68.40;;;;;;5046960;28;20037;-52
2023/10/08 12:08:28;;;;;;;2.97;1.85;;;19.20;68.30;;;;;;5039197;28;20517;-51
2023/10/08 12:10:54;;;;;;;8.40;3.05;;;19.20;68.10;;;;;;5042152;28;20144;-58
2023/10/08 12:13:24;;;;;;;8.65;3.42;;;19.20;69.50;;;;;;5045215;28;20439;-54
2023/10/08 12:16:05;;;;;;;10.90;5.97;;;19.30;69.60;;;;;;5043396;28;20048;-54
2023/10/08 12:18:34;;;;;;;17.02;8.13;;;19.30;69.80;;;;;;5040898;28;20111;-51
2023/10/08 12:21:01;;;;;;;18.63;11.10;;;19.30;69.60;;;;;;5050433;28;20063;-54
2023/10/08 12:23:28;;;;;;;26.23;15.55;;;19.30;69.40;;;;;;5054051;28;20058;-55
2023/10/08 12:25:55;;;;;;;32.25;20.88;;;19.30;68.90;;;;;;5048961;28;20021;-51
2023/10/08 12:28:25;;;;;;;19.63;10.15;;;19.30;68.70;;;;;;5043795;28;20674;-51
2023/10/08 12:30:55;;;;;;;24.27;14.63;;;19.30;69.10;;;;;;5040725;28;20044;-55
2023/10/08 12:33:24;;;;;;;38.17;23.50;;;19.20;69.00;;;;;;5041739;28;20102;-52
2023/10/08 12:35:53;;;;;;;39.60;22.75;;;19.30;68.90;;;;;;5045560;28;20115;-52
2023/10/08 12:38:22;;;;;;;32.45;20.10;;;19.30;68.70;;;;;;5041023;28;20040;-51
2023/10/08 12:40:53;;;;;;;56.30;31.58;;;19.30;68.60;;;;;;5036503;28;20036;-49
2023/10/08 12:43:19;;;;;;;62.97;37.67;;;19.30;68.40;;;;;;5041896;28;20044;-52
2023/10/08 12:45:52;;;;;;;55.72;33.50;;;19.30;68.80;;;;;;5039981;28;20029;-50
2023/10/08 12:48:26;;;;;;;68.28;41.00;;;19.30;68.80;;;;;;5047026;28;20048;-49
2023/10/08 12:50:57;;;;;;;72.32;44.78;;;19.30;69.20;;;;;;5046389;28;20075;-53
2023/10/08 12:53:33;;;;;;;70.50;40.30;;;19.30;68.80;;;;;;5044473;28;20103;-52
2023/10/08 12:56:06;;;;;;;73.80;44.58;;;19.30;69.30;;;;;;5036824;28;20171;-52
2023/10/08 12:58:48;;;;;;;69.35;44.70;;;19.30;69.50;;;;;;5043024;28;20113;-52
2023/10/08 13:01:17;;;;;;;71.72;43.30;;;19.30;69.30;;;;;;5040708;28;20049;-53
2023/10/08 13:03:53;;;;;;;65.45;40.85;;;19.30;69.00;;;;;;5043932;28;20030;-56
2023/10/08 13:06:28;;;;;;;66.20;40.20;;;19.30;69.30;;;;;;5047617;28;20032;-50
2023/10/08 13:08:54;;;;;;;63.00;37.43;;;19.40;69.00;;;;;;5033185;28;20038;-50
2023/10/08 13:11:24;;;;;;;64.97;37.92;;;19.30;68.90;;;;;;5040916;28;20041;-49
2023/10/08 13:13:56;;;;;;;58.15;36.65;;;19.30;69.00;;;;;;5038580;28;20107;-54
2023/10/08 13:16:23;;;;;;;54.92;34.25;;;19.40;68.80;;;;;;5042953;28;20583;-49
2023/10/08 13:18:49;;;;;;;60.50;35.88;;;19.30;68.80;;;;;;5048851;28;20108;-52
2023/10/08 13:21:15;;;;;;;52.25;32.35;;;19.40;68.40;;;;;;5049318;28;20025;-50
2023/10/08 13:23:42;;;;;;;51.10;31.58;;;19.30;68.50;;;;;;5043179;28;20033;-52
2023/10/08 13:26:08;;;;;;;49.30;32.35;;;19.40;68.50;;;;;;5040892;28;20029;-53
2023/10/08 13:28:35;;;;;;;51.58;31.63;;;19.30;68.50;;;;;;5040780;28;20033;-53
2023/10/08 13:31:09;;;;;;;46.88;29.73;;;19.40;68.30;;;;;;5041982;28;20025;-51
2023/10/08 13:33:38;;;;;;;43.23;27.77;;;19.30;68.40;;;;;;5044264;28;20537;-51
2023/10/08 13:36:08;;;;;;;44.92;26.55;;;19.30;68.20;;;;;;5040260;28;20977;-51
2023/10/08 13:38:37;;;;;;;43.05;26.27;;;19.40;68.30;;;;;;5034275;28;20079;-51
2023/10/08 13:41:14;;;;;;;40.95;24.88;;;19.30;68.20;;;;;;5043739;28;20036;-52
2023/10/08 13:43:45;;;;;;;38.72;25.50;;;19.30;68.20;;;;;;5035620;28;20470;-51
2023/10/08 13:46:13;;;;;;;40.70;23.38;;;19.30;68.70;;;;;;5043654;28;20472;-52
2023/10/08 13:48:39;;;;;;;35.13;24.13;;;19.40;67.90;;;;;;5046780;28;20033;-58
2023/10/08 13:51:13;;;;;;;36.45;21.30;;;19.30;67.90;;;;;;5042344;28;20021;-52
2023/10/08 13:53:40;;;;;;;34.83;21.70;;;19.40;67.90;;;;;;5043755;28;20111;-53
2023/10/08 13:56:06;;;;;;;33.40;19.80;;;19.30;67.90;;;;;;5044146;28;20426;-52
2023/10/08 13:58:35;;;;;;;31.48;19.73;;;19.40;67.90;;;;;;5039193;28;20036;-54
2023/10/08 14:01:01;;;;;;;34.58;20.52;;;19.30;67.80;;;;;;5033748;28;20025;-52
2023/10/08 14:03:33;;;;;;;31.55;18.73;;;19.30;67.70;;;;;;5042402;28;20040;-53
2023/10/08 14:06:04;;;;;;;32.83;19.52;;;19.30;67.70;;;;;;5035335;28;20072;-53
2023/10/08 14:08:31;;;;;;;26.00;17.95;;;19.40;67.70;;;;;;5035736;28;20104;-52
2023/10/08 14:11:02;;;;;;;27.17;17.73;;;19.30;67.60;;;;;;5042596;28;20025;-52